Time;durP1;ratioP1;P1;durP2;ratioP2;P2;SDS_P1;SDS_P2;PMS_P1;PMS_P2;Temp;Humidity;BMP_temperature;BMP_pressure;BME280_temperature;BME280_humidity;BME280_pressure;Samples;Min_cycle;Max_cycle;Signal;HPM_P1;HPM_P2
2021/05/21 00:00:11;;;;;;;3.23;2.60;;;8.10;99.90;;;;;;5038617;28;20249;-61
2021/05/21 00:02:36;;;;;;;2.93;2.60;;;8.10;99.90;;;;;;5051721;28;20177;-60
2021/05/21 00:05:02;;;;;;;8.20;3.00;;;8.10;99.90;;;;;;5048168;28;20437;-60
2021/05/21 00:07:28;;;;;;;3.90;2.40;;;8.00;99.90;;;;;;5039852;28;20202;-60
2021/05/21 00:09:54;;;;;;;3.03;2.83;;;8.00;99.90;;;;;;5059869;28;20810;-61
2021/05/21 00:12:19;;;;;;;3.53;2.73;;;8.00;99.90;;;;;;5060785;28;20278;-61
2021/05/21 00:14:45;;;;;;;4.00;2.60;;;8.00;99.90;;;;;;5042154;28;20251;-60
2021/05/21 00:17:11;;;;;;;3.93;2.63;;;8.00;99.90;;;;;;5051044;28;20182;-60
2021/05/21 00:19:36;;;;;;;3.60;2.93;;;8.00;99.90;;;;;;5032628;28;20218;-60
2021/05/21 00:22:02;;;;;;;3.97;2.60;;;8.00;99.90;;;;;;5050867;28;20171;-60
2021/05/21 00:24:28;;;;;;;2.90;2.30;;;7.90;99.90;;;;;;5050150;28;20164;-60
2021/05/21 00:26:53;;;;;;;2.20;2.00;;;7.90;99.90;;;;;;5049301;28;20175;-60
2021/05/21 00:29:19;;;;;;;4.13;2.50;;;7.90;99.90;;;;;;5031823;28;20683;-61
2021/05/21 00:31:44;;;;;;;2.80;2.60;;;7.90;99.90;;;;;;5047786;28;20184;-60
2021/05/21 00:34:10;;;;;;;4.80;2.67;;;7.90;99.90;;;;;;5042284;28;20313;-60
2021/05/21 00:36:36;;;;;;;2.90;2.70;;;7.90;99.90;;;;;;5048951;28;20193;-59
2021/05/21 00:39:03;;;;;;;3.27;2.97;;;7.90;99.90;;;;;;5045856;28;20203;-59
2021/05/21 00:41:29;;;;;;;3.07;2.77;;;7.90;99.90;;;;;;5043674;28;20246;-60
2021/05/21 00:43:56;;;;;;;2.67;2.47;;;7.90;99.90;;;;;;5049174;28;20458;-60
2021/05/21 00:46:22;;;;;;;3.97;2.90;;;7.90;99.90;;;;;;5038451;28;20592;-61
2021/05/21 00:48:47;;;;;;;3.67;2.80;;;7.80;99.90;;;;;;5036784;28;20429;-60
2021/05/21 00:51:13;;;;;;;5.43;3.43;;;7.80;99.90;;;;;;5042323;28;20317;-60
2021/05/21 00:53:40;;;;;;;5.57;3.10;;;7.80;99.90;;;;;;5049236;28;20198;-59
2021/05/21 00:56:08;;;;;;;6.23;2.90;;;7.80;99.90;;;;;;5045497;28;20178;-59
2021/05/21 00:58:35;;;;;;;5.83;2.60;;;7.80;99.90;;;;;;5047801;28;21125;-60
2021/05/21 01:01:01;;;;;;;2.97;2.70;;;7.80;99.90;;;;;;5029808;28;20447;-60
2021/05/21 01:03:26;;;;;;;5.43;2.90;;;7.80;99.90;;;;;;5032305;28;20405;-60
2021/05/21 01:05:52;;;;;;;4.63;2.90;;;7.80;99.90;;;;;;5029586;28;20674;-60
2021/05/21 01:08:19;;;;;;;4.53;2.60;;;7.80;99.90;;;;;;5029690;28;20274;-60
2021/05/21 01:10:45;;;;;;;3.37;2.73;;;7.80;99.90;;;;;;5030520;28;20489;-60
2021/05/21 01:13:11;;;;;;;2.57;2.37;;;7.80;99.90;;;;;;5025925;28;20434;-60
2021/05/21 01:15:38;;;;;;;2.73;2.53;;;7.70;99.90;;;;;;5060835;28;20409;-59
2021/05/21 01:18:05;;;;;;;2.93;2.63;;;7.70;99.90;;;;;;5058967;28;20841;-59
2021/05/21 01:20:31;;;;;;;6.83;2.67;;;7.70;99.90;;;;;;5042830;28;20560;-60
2021/05/21 01:22:57;;;;;;;3.03;2.40;;;7.70;99.90;;;;;;5040647;28;20461;-60
2021/05/21 01:25:23;;;;;;;7.20;2.57;;;7.70;99.90;;;;;;5045515;28;20820;-60
2021/05/21 01:27:51;;;;;;;6.60;4.33;;;7.60;99.90;;;;;;5048889;28;20174;-60
2021/05/21 01:30:17;;;;;;;3.77;2.57;;;7.60;99.90;;;;;;5039914;28;20195;-60
2021/05/21 01:32:46;;;;;;;2.60;2.33;;;7.60;99.90;;;;;;5047130;28;20788;-60
2021/05/21 01:35:14;;;;;;;5.10;2.73;;;7.60;99.90;;;;;;5050745;28;20709;-60
2021/05/21 01:37:43;;;;;;;3.57;3.10;;;7.50;99.90;;;;;;5044211;28;20421;-59
2021/05/21 01:40:10;;;;;;;4.80;2.70;;;7.50;99.90;;;;;;5048313;28;20544;-59
2021/05/21 01:42:36;;;;;;;2.90;2.70;;;7.50;99.90;;;;;;5047870;28;20821;-60
2021/05/21 01:45:02;;;;;;;3.17;2.87;;;7.50;99.90;;;;;;5032286;28;20417;-59
2021/05/21 01:47:28;;;;;;;4.40;2.80;;;7.50;99.90;;;;;;5049420;28;20195;-59
2021/05/21 01:49:53;;;;;;;6.50;3.00;;;7.50;99.90;;;;;;5047394;28;20487;-60
2021/05/21 01:52:19;;;;;;;6.83;2.97;;;7.50;99.90;;;;;;5028511;28;20183;-60
2021/05/21 01:54:45;;;;;;;4.57;3.00;;;7.50;99.90;;;;;;5046996;28;20176;-60
2021/05/21 01:57:11;;;;;;;3.40;2.70;;;7.50;99.90;;;;;;5031598;28;20186;-58
2021/05/21 01:59:37;;;;;;;3.13;2.80;;;7.40;99.90;;;;;;5030289;28;20468;-60
2021/05/21 02:02:03;;;;;;;2.93;2.70;;;7.40;99.90;;;;;;5038582;28;20206;-59
2021/05/21 02:04:47;;;;;;;7.67;3.20;;;7.40;99.90;;;;;;5047310;28;20667;-59
2021/05/21 02:07:16;;;;;;;3.47;2.40;;;7.40;99.90;;;;;;5030420;28;20872;-59
2021/05/21 02:09:44;;;;;;;4.80;2.70;;;7.30;99.90;;;;;;5035394;28;20756;-60
2021/05/21 02:12:10;;;;;;;3.20;2.47;;;7.40;99.90;;;;;;5047090;28;20421;-60
2021/05/21 02:14:36;;;;;;;7.20;3.07;;;7.30;99.90;;;;;;5026630;28;21070;-58
2021/05/21 02:17:02;;;;;;;3.40;3.10;;;7.30;99.90;;;;;;5044578;28;20475;-60
2021/05/21 02:19:27;;;;;;;6.07;2.70;;;7.30;99.90;;;;;;5048768;28;20293;-60
2021/05/21 02:21:53;;;;;;;3.07;2.87;;;7.30;99.90;;;;;;5049959;28;20171;-61
2021/05/21 02:24:18;;;;;;;3.63;3.07;;;7.30;99.90;;;;;;5031937;28;20182;-60
2021/05/21 02:26:44;;;;;;;2.90;2.60;;;7.30;99.90;;;;;;5044228;28;20182;-61
2021/05/21 02:29:10;;;;;;;6.70;2.70;;;7.30;99.90;;;;;;5023566;28;20226;-60
2021/05/21 02:31:36;;;;;;;5.03;2.90;;;7.20;99.90;;;;;;5037979;28;20175;-58
2021/05/21 02:34:02;;;;;;;4.30;3.17;;;7.20;99.90;;;;;;5026935;28;20644;-60
2021/05/21 02:36:27;;;;;;;5.70;2.80;;;7.20;99.90;;;;;;5047436;28;20908;-60
2021/05/21 02:38:53;;;;;;;7.60;2.70;;;7.20;99.90;;;;;;5040167;28;20449;-60
2021/05/21 02:41:20;;;;;;;5.60;2.70;;;7.10;99.90;;;;;;5048126;28;20213;-60
2021/05/21 02:43:46;;;;;;;4.10;3.20;;;7.10;99.90;;;;;;5043166;28;20549;-60
2021/05/21 02:46:12;;;;;;;3.53;2.80;;;7.10;99.90;;;;;;5030201;28;20398;-60
2021/05/21 02:48:37;;;;;;;4.13;3.23;;;7.10;99.90;;;;;;5034059;28;20418;-59
2021/05/21 02:51:03;;;;;;;3.20;2.70;;;7.10;99.90;;;;;;5047454;28;20179;-60
2021/05/21 02:53:29;;;;;;;8.60;2.77;;;7.10;99.90;;;;;;5038268;28;20716;-59
2021/05/21 02:55:54;;;;;;;2.97;2.20;;;7.00;99.90;;;;;;5038281;28;20814;-60
2021/05/21 02:58:20;;;;;;;7.73;2.43;;;7.00;99.90;;;;;;5041415;28;20233;-60
2021/05/21 03:00:46;;;;;;;4.57;2.80;;;7.00;99.90;;;;;;5022297;28;20307;-60
2021/05/21 03:03:12;;;;;;;9.17;2.80;;;6.90;99.90;;;;;;5047341;28;20184;-60
2021/05/21 03:05:37;;;;;;;3.23;2.83;;;6.90;99.90;;;;;;5024833;28;20502;-60
2021/05/21 03:08:03;;;;;;;4.40;2.57;;;6.90;99.90;;;;;;5031323;28;20455;-60
2021/05/21 03:10:29;;;;;;;5.30;2.90;;;6.90;99.90;;;;;;5046662;28;20218;-60
2021/05/21 03:12:55;;;;;;;3.50;3.20;;;6.90;99.90;;;;;;5037063;28;20253;-59
2021/05/21 03:15:26;;;;;;;5.20;2.53;;;6.90;99.90;;;;;;5051709;28;20175;-60
2021/05/21 03:17:52;;;;;;;4.87;2.80;;;6.80;99.90;;;;;;5053593;28;20647;-60
2021/05/21 03:20:18;;;;;;;3.90;3.00;;;6.80;99.90;;;;;;5032144;28;20984;-60
2021/05/21 03:22:44;;;;;;;3.03;2.63;;;6.80;99.90;;;;;;5031789;28;20506;-59
2021/05/21 03:25:11;;;;;;;3.27;2.90;;;6.80;99.90;;;;;;5046051;28;20417;-59
2021/05/21 03:27:36;;;;;;;6.07;3.00;;;6.80;99.90;;;;;;5052025;28;20647;-60
2021/05/21 03:30:04;;;;;;;4.10;2.80;;;6.80;99.90;;;;;;5051555;28;20457;-58
2021/05/21 03:32:30;;;;;;;4.83;3.03;;;6.80;99.90;;;;;;5032198;28;20183;-60
2021/05/21 03:34:56;;;;;;;3.50;3.10;;;6.80;99.90;;;;;;5051590;28;20439;-60
2021/05/21 03:37:21;;;;;;;3.30;3.00;;;6.80;99.90;;;;;;5050906;28;20527;-60
2021/05/21 03:39:47;;;;;;;5.23;3.50;;;6.80;99.90;;;;;;5051999;28;20221;-60
2021/05/21 03:42:13;;;;;;;5.00;3.60;;;6.80;99.90;;;;;;5047767;28;20581;-60
2021/05/21 03:44:39;;;;;;;3.00;2.80;;;6.90;99.90;;;;;;5041988;28;20433;-60
2021/05/21 03:47:05;;;;;;;4.30;3.10;;;6.80;99.90;;;;;;5034015;28;20176;-60
2021/05/21 03:49:31;;;;;;;3.83;3.03;;;6.80;99.90;;;;;;5044156;28;20889;-60
2021/05/21 03:51:58;;;;;;;3.20;2.90;;;6.80;99.90;;;;;;5048730;28;20437;-60
2021/05/21 03:54:24;;;;;;;6.33;3.10;;;6.80;99.90;;;;;;5019580;28;20529;-59
2021/05/21 03:56:50;;;;;;;3.33;3.03;;;6.70;99.90;;;;;;5018967;28;20454;-60
2021/05/21 03:59:16;;;;;;;3.80;2.90;;;6.70;99.90;;;;;;5023365;28;20199;-60
2021/05/21 04:01:43;;;;;;;3.43;3.13;;;6.70;99.90;;;;;;5030484;28;20946;-60
2021/05/21 04:04:09;;;;;;;6.30;3.10;;;6.70;99.90;;;;;;5046051;28;20804;-60
2021/05/21 04:06:34;;;;;;;3.20;2.93;;;6.70;99.90;;;;;;5045116;28;20425;-58
2021/05/21 04:09:06;;;;;;;5.30;3.17;;;6.70;99.90;;;;;;5048265;28;20175;-60
2021/05/21 04:11:41;;;;;;;4.57;3.10;;;6.70;99.90;;;;;;5040071;28;20250;-60
2021/05/21 04:14:07;;;;;;;3.23;2.77;;;6.80;99.90;;;;;;5047624;28;20466;-60
2021/05/21 04:16:33;;;;;;;3.80;3.47;;;6.80;99.90;;;;;;5052448;28;20435;-60
2021/05/21 04:19:00;;;;;;;5.73;3.00;;;6.80;99.90;;;;;;5023239;28;20576;-59
2021/05/21 04:21:26;;;;;;;3.87;3.40;;;6.80;99.90;;;;;;5038266;28;20175;-60
2021/05/21 04:23:52;;;;;;;4.50;3.30;;;6.80;99.90;;;;;;5047282;28;20433;-60
2021/05/21 04:26:19;;;;;;;7.37;3.47;;;6.80;99.90;;;;;;5043126;28;20469;-60
2021/05/21 04:28:48;;;;;;;5.20;3.57;;;6.80;99.90;;;;;;5041042;28;20524;-60
2021/05/21 04:31:15;;;;;;;3.73;3.30;;;6.80;99.90;;;;;;5048869;28;20457;-60
2021/05/21 04:33:41;;;;;;;3.77;3.00;;;6.80;99.90;;;;;;5048114;28;20437;-61
2021/05/21 04:36:07;;;;;;;5.00;2.90;;;6.80;99.90;;;;;;5042171;28;20504;-60
2021/05/21 04:38:33;;;;;;;3.90;3.50;;;6.80;99.90;;;;;;5044264;28;20426;-60
2021/05/21 04:40:59;;;;;;;5.50;2.80;;;6.80;99.90;;;;;;5026821;28;20466;-59
2021/05/21 04:43:26;;;;;;;3.20;2.87;;;6.80;99.90;;;;;;5025985;28;20184;-60
2021/05/21 04:45:53;;;;;;;4.73;3.30;;;6.80;99.90;;;;;;5042736;28;20183;-59
2021/05/21 04:48:19;;;;;;;4.00;3.27;;;6.90;99.90;;;;;;5037264;28;20933;-60
2021/05/21 04:50:45;;;;;;;4.10;3.03;;;6.90;99.90;;;;;;5042604;28;20464;-59
2021/05/21 04:53:12;;;;;;;5.63;3.60;;;6.90;99.90;;;;;;5027460;28;20448;-57
2021/05/21 04:55:38;;;;;;;3.23;2.93;;;7.00;99.90;;;;;;5023927;28;20438;-58
2021/05/21 04:58:03;;;;;;;4.13;2.80;;;7.10;99.90;;;;;;5047275;28;20956;-58
2021/05/21 05:00:29;;;;;;;3.87;3.13;;;7.10;99.90;;;;;;5036371;28;20469;-59
2021/05/21 05:02:55;;;;;;;5.50;3.20;;;7.10;99.90;;;;;;5044247;28;20186;-58
2021/05/21 05:05:21;;;;;;;13.40;3.63;;;7.10;99.90;;;;;;5043728;28;20190;-58
2021/05/21 05:07:47;;;;;;;7.73;3.10;;;7.10;99.90;;;;;;5038080;28;20435;-61
2021/05/21 05:10:12;;;;;;;3.40;3.10;;;7.20;99.90;;;;;;5048050;28;20702;-60
2021/05/21 05:12:39;;;;;;;5.33;3.17;;;7.30;99.90;;;;;;5040380;28;20203;-60
2021/05/21 05:15:07;;;;;;;4.00;3.27;;;7.30;99.90;;;;;;5042674;28;20189;-60
2021/05/21 05:17:32;;;;;;;3.57;3.10;;;7.30;99.90;;;;;;5050121;28;20942;-59
2021/05/21 05:19:58;;;;;;;3.33;3.03;;;7.40;99.90;;;;;;5046660;28;20510;-61
2021/05/21 05:22:24;;;;;;;3.80;3.43;;;7.40;99.90;;;;;;5048364;28;20179;-61
2021/05/21 05:24:49;;;;;;;4.10;3.70;;;7.50;99.90;;;;;;5045176;28;20250;-60
2021/05/21 05:27:15;;;;;;;4.03;3.20;;;7.50;99.90;;;;;;5044595;28;20266;-61
2021/05/21 05:29:44;;;;;;;8.83;4.03;;;7.60;99.90;;;;;;5039403;28;21068;-60
2021/05/21 05:32:10;;;;;;;5.17;4.03;;;7.60;99.90;;;;;;5042261;28;20227;-60
2021/05/21 05:34:35;;;;;;;6.50;4.13;;;7.70;99.90;;;;;;5043182;28;20469;-61
2021/05/21 05:37:01;;;;;;;4.00;3.57;;;7.80;99.90;;;;;;5028447;28;20182;-60
2021/05/21 05:39:26;;;;;;;5.53;3.60;;;7.80;99.90;;;;;;5034078;28;20245;-61
2021/05/21 05:41:52;;;;;;;6.20;4.23;;;7.90;99.90;;;;;;5042992;28;20183;-62
2021/05/21 05:44:18;;;;;;;11.73;4.70;;;7.90;99.90;;;;;;5017194;28;20191;-61
2021/05/21 05:46:44;;;;;;;7.20;4.10;;;8.00;99.90;;;;;;5023424;28;20575;-60
2021/05/21 05:49:09;;;;;;;4.90;4.10;;;8.10;99.90;;;;;;5044147;28;20183;-60
2021/05/21 05:51:35;;;;;;;8.10;4.23;;;8.10;99.90;;;;;;5046747;28;20972;-60
2021/05/21 05:54:01;;;;;;;5.47;4.63;;;8.20;99.90;;;;;;5026501;28;20183;-62
2021/05/21 05:56:27;;;;;;;6.07;3.67;;;8.20;99.90;;;;;;5043511;28;20221;-61
2021/05/21 05:58:52;;;;;;;4.70;3.73;;;8.30;99.90;;;;;;5047299;28;20187;-61
2021/05/21 06:01:18;;;;;;;9.40;4.60;;;8.30;99.90;;;;;;5050150;28;20824;-61
2021/05/21 06:03:44;;;;;;;7.33;4.60;;;8.40;99.90;;;;;;5049093;28;20171;-60
2021/05/21 06:06:09;;;;;;;6.23;4.40;;;8.50;99.90;;;;;;5042257;28;20410;-61
2021/05/21 06:08:35;;;;;;;4.50;4.10;;;8.70;99.90;;;;;;5046413;28;20233;-61
2021/05/21 06:11:01;;;;;;;7.97;4.23;;;8.90;99.90;;;;;;5029883;28;20207;-61
2021/05/21 06:13:27;;;;;;;5.17;3.80;;;9.10;99.90;;;;;;5036887;28;20187;-60
2021/05/21 06:15:53;;;;;;;5.07;3.80;;;9.30;99.90;;;;;;5046519;28;20236;-61
2021/05/21 06:18:19;;;;;;;5.63;4.00;;;9.60;99.90;;;;;;5044399;28;20491;-61
2021/05/21 06:20:45;;;;;;;4.40;3.63;;;9.70;99.90;;;;;;5046771;28;20468;-61
2021/05/21 06:23:11;;;;;;;5.57;3.87;;;9.90;99.90;;;;;;5028747;28;20440;-60
2021/05/21 06:28:15;;;;;;;5.80;3.80;;;10.20;99.90;;;;;;5043909;28;20655;-61
2021/05/21 06:30:40;;;;;;;10.70;4.47;;;10.30;99.90;;;;;;5043000;28;20536;-62
2021/05/21 06:33:06;;;;;;;5.53;3.83;;;10.40;99.90;;;;;;5027509;28;20517;-61
2021/05/21 06:35:35;;;;;;;6.07;3.83;;;10.50;99.90;;;;;;5048131;28;20290;-61
2021/05/21 06:38:01;;;;;;;5.40;3.63;;;10.60;99.90;;;;;;5029591;28;20234;-60
2021/05/21 06:40:26;;;;;;;8.13;4.10;;;10.70;99.90;;;;;;5032891;28;20472;-61
2021/05/21 06:42:52;;;;;;;8.97;4.13;;;10.70;99.90;;;;;;5041570;28;20433;-61
2021/05/21 06:45:17;;;;;;;6.50;4.00;;;10.70;99.90;;;;;;5031190;28;20238;-61
2021/05/21 06:47:43;;;;;;;7.37;3.70;;;10.80;99.90;;;;;;5029502;28;20179;-61
2021/05/21 06:50:10;;;;;;;4.70;3.50;;;10.80;99.90;;;;;;5026586;28;20290;-60
2021/05/21 06:52:35;;;;;;;3.73;3.10;;;10.90;99.90;;;;;;5049613;28;20528;-61
2021/05/21 06:55:02;;;;;;;3.37;3.07;;;11.00;99.90;;;;;;5045425;28;20525;-60
2021/05/21 06:57:27;;;;;;;4.53;2.93;;;11.00;98.80;;;;;;5045257;28;20180;-61
2021/05/21 06:59:53;;;;;;;3.90;1.70;;;11.10;97.50;;;;;;5051768;28;20468;-61
2021/05/21 07:02:20;;;;;;;1.87;1.43;;;11.20;94.50;;;;;;5040909;28;20186;-60
2021/05/21 07:04:45;;;;;;;1.60;1.50;;;11.30;88.20;;;;;;5042728;28;20172;-61
2021/05/21 07:07:11;;;;;;;1.40;1.30;;;11.40;87.50;;;;;;5041361;28;20523;-61
2021/05/21 07:09:37;;;;;;;2.50;1.63;;;11.50;85.50;;;;;;5049140;28;20256;-61
2021/05/21 07:12:03;;;;;;;1.60;1.50;;;11.60;83.50;;;;;;5051656;28;20855;-62
2021/05/21 07:14:30;;;;;;;1.83;1.60;;;11.60;84.50;;;;;;5046680;28;20785;-61
2021/05/21 07:16:55;;;;;;;5.17;1.90;;;11.70;81.30;;;;;;5049419;28;20411;-60
2021/05/21 07:19:21;;;;;;;2.10;1.60;;;11.70;81.40;;;;;;5041425;28;20538;-61
2021/05/21 07:21:46;;;;;;;2.73;1.90;;;11.70;81.90;;;;;;5051805;28;20169;-62
2021/05/21 07:24:12;;;;;;;3.33;1.50;;;11.80;78.70;;;;;;5033885;28;20179;-60
2021/05/21 07:26:39;;;;;;;2.60;1.70;;;11.90;78.00;;;;;;5044379;28;20251;-61
2021/05/21 07:29:05;;;;;;;6.20;1.33;;;12.00;77.10;;;;;;5033536;28;20175;-60
2021/05/21 07:31:31;;;;;;;2.80;1.53;;;12.10;77.20;;;;;;5050237;28;20429;-61
2021/05/21 07:33:58;;;;;;;4.00;1.67;;;12.10;74.90;;;;;;5040322;28;20575;-60
2021/05/21 07:36:28;;;;;;;1.80;1.70;;;12.20;74.80;;;;;;5040875;28;20179;-61
2021/05/21 07:38:55;;;;;;;5.07;1.53;;;12.20;75.80;;;;;;5044983;28;20474;-61
2021/05/21 07:41:25;;;;;;;2.00;1.50;;;12.20;76.40;;;;;;5041626;28;20433;-61
2021/05/21 07:43:52;;;;;;;7.40;1.70;;;12.20;77.80;;;;;;5022454;28;21025;-62
2021/05/21 07:46:19;;;;;;;1.63;1.53;;;12.20;77.50;;;;;;5039427;28;21212;-61
2021/05/21 07:48:45;;;;;;;2.63;1.40;;;12.20;78.60;;;;;;5040419;28;20474;-60
2021/05/21 07:51:10;;;;;;;3.70;1.70;;;12.20;80.50;;;;;;5043832;28;21398;-62
2021/05/21 07:53:37;;;;;;;4.50;1.80;;;12.10;82.40;;;;;;5042717;28;20183;-60
2021/05/21 07:56:05;;;;;;;2.00;1.60;;;12.10;84.20;;;;;;5022509;28;20188;-61
2021/05/21 07:58:31;;;;;;;7.93;1.97;;;12.10;85.50;;;;;;5040819;28;20599;-62
2021/05/21 08:00:57;;;;;;;2.20;1.73;;;12.10;85.10;;;;;;5039755;28;20469;-61
2021/05/21 08:03:24;;;;;;;2.03;1.73;;;12.10;85.10;;;;;;5041144;28;20246;-62
2021/05/21 08:05:50;;;;;;;2.10;1.77;;;12.10;84.40;;;;;;5038103;28;20425;-61
2021/05/21 08:08:21;;;;;;;9.93;1.60;;;12.10;84.70;;;;;;5042910;28;20426;-62
2021/05/21 08:10:54;;;;;;;2.00;1.60;;;12.10;84.70;;;;;;5042466;28;20276;-61
2021/05/21 08:13:20;;;;;;;1.60;1.50;;;12.10;85.10;;;;;;5041385;28;20406;-62
2021/05/21 08:15:46;;;;;;;3.20;1.73;;;12.10;83.20;;;;;;5022990;28;20817;-63
2021/05/21 08:18:12;;;;;;;2.80;1.30;;;12.10;82.10;;;;;;5019352;28;20429;-61
2021/05/21 08:20:39;;;;;;;5.13;1.73;;;12.10;82.50;;;;;;5044396;28;21311;-62
2021/05/21 08:23:05;;;;;;;1.93;1.43;;;12.10;83.60;;;;;;5036792;28;20258;-61
2021/05/21 08:25:31;;;;;;;2.00;1.50;;;12.10;85.50;;;;;;5025200;28;21239;-61
2021/05/21 08:27:57;;;;;;;2.50;1.70;;;12.10;87.80;;;;;;5040894;28;20430;-61
2021/05/21 08:30:24;;;;;;;2.50;1.70;;;12.00;87.70;;;;;;5024896;28;20477;-62
2021/05/21 08:32:53;;;;;;;6.50;1.70;;;12.00;88.90;;;;;;5038225;28;20436;-61
2021/05/21 08:35:20;;;;;;;3.20;1.67;;;12.00;90.20;;;;;;5029243;28;20433;-61
2021/05/21 08:37:46;;;;;;;1.67;1.57;;;11.90;91.20;;;;;;5037788;28;20433;-61
2021/05/21 08:40:19;;;;;;;3.43;1.70;;;11.90;92.10;;;;;;5046002;28;20465;-60
2021/05/21 08:42:46;;;;;;;1.87;1.47;;;11.80;93.10;;;;;;5028317;28;20428;-61
2021/05/21 08:45:16;;;;;;;5.17;2.07;;;11.80;93.60;;;;;;5043982;28;20440;-61
2021/05/21 08:47:42;;;;;;;2.67;1.60;;;11.80;94.80;;;;;;5046111;28;20436;-62
2021/05/21 08:50:09;;;;;;;3.40;1.90;;;11.70;95.20;;;;;;5047657;28;20953;-60
2021/05/21 08:52:35;;;;;;;1.60;1.50;;;11.70;96.30;;;;;;5039328;28;20516;-62
2021/05/21 08:55:01;;;;;;;2.23;1.83;;;11.60;96.90;;;;;;5044281;28;20537;-60
2021/05/21 08:57:30;;;;;;;2.40;1.90;;;11.60;98.10;;;;;;5045457;28;20430;-61
2021/05/21 08:59:56;;;;;;;3.37;1.90;;;11.60;98.70;;;;;;5024430;28;20221;-62
2021/05/21 09:02:26;;;;;;;2.83;1.70;;;11.60;99.50;;;;;;5041346;28;20441;-60
2021/05/21 09:04:59;;;;;;;2.00;1.80;;;11.50;99.90;;;;;;5043087;28;20462;-61
2021/05/21 09:07:28;;;;;;;2.50;2.07;;;11.50;99.90;;;;;;5026137;28;20441;-61
2021/05/21 09:09:56;;;;;;;1.80;1.70;;;11.50;99.90;;;;;;5045796;28;20515;-61
2021/05/21 09:12:23;;;;;;;3.00;1.90;;;11.50;99.90;;;;;;4998124;28;20439;-61
2021/05/21 09:15:08;;;;;;;3.00;2.10;;;11.50;99.90;;;;;;5043393;28;20635;-62
2021/05/21 09:17:33;;;;;;;2.60;1.87;;;11.50;99.90;;;;;;5034755;28;20479;-58
2021/05/21 09:20:00;;;;;;;2.43;2.20;;;11.60;99.90;;;;;;5021704;28;21142;-61
2021/05/21 09:22:26;;;;;;;2.23;1.90;;;11.60;99.90;;;;;;5043875;28;20176;-61
2021/05/21 09:24:52;;;;;;;3.90;1.60;;;11.70;99.90;;;;;;5043015;28;20499;-61
2021/05/21 09:27:19;;;;;;;2.13;1.80;;;11.70;99.90;;;;;;5048310;28;20181;-60
2021/05/21 09:29:51;;;;;;;2.03;1.80;;;11.70;99.90;;;;;;5043637;28;20603;-61
2021/05/21 09:32:32;;;;;;;6.53;2.57;;;11.80;99.90;;;;;;5045394;28;20418;-61
2021/05/21 09:35:11;;;;;;;2.90;1.57;;;11.80;99.90;;;;;;5045308;28;20487;-62
2021/05/21 09:37:55;;;;;;;2.27;1.73;;;11.80;99.90;;;;;;5046237;28;20421;-61
2021/05/21 09:40:25;;;;;;;2.80;1.63;;;11.80;99.90;;;;;;5042478;28;20477;-61
2021/05/21 09:42:58;;;;;;;1.63;1.53;;;11.80;99.90;;;;;;5039984;28;20429;-61
2021/05/21 09:45:37;;;;;;;3.33;2.30;;;11.80;99.90;;;;;;5038442;28;20413;-62
2021/05/21 09:48:05;;;;;;;3.30;2.30;;;11.70;99.90;;;;;;5046870;28;20429;-62
2021/05/21 09:50:38;;;;;;;4.07;2.40;;;11.70;99.90;;;;;;5044385;28;21044;-61
2021/05/21 09:53:13;;;;;;;5.17;2.00;;;11.60;99.90;;;;;;5047104;28;20450;-61
2021/05/21 09:55:52;;;;;;;2.70;1.87;;;11.60;99.90;;;;;;5039823;28;20434;-61
2021/05/21 09:58:40;;;;;;;4.00;1.87;;;11.50;99.90;;;;;;5029897;28;20937;-60
2021/05/21 10:01:07;;;;;;;2.00;1.80;;;11.30;99.90;;;;;;5039811;28;20480;-61
2021/05/21 10:03:34;;;;;;;2.87;1.67;;;11.30;99.90;;;;;;5046074;28;20484;-62
2021/05/21 10:05:59;;;;;;;1.93;1.70;;;11.20;99.90;;;;;;5013411;28;20528;-61
2021/05/21 10:08:25;;;;;;;3.40;2.10;;;11.20;99.90;;;;;;5045640;28;20528;-60
2021/05/21 10:10:51;;;;;;;2.83;1.77;;;11.20;99.90;;;;;;5045505;28;20203;-61
2021/05/21 10:13:17;;;;;;;2.50;1.90;;;11.20;99.90;;;;;;5022921;28;20740;-59
2021/05/21 10:15:43;;;;;;;3.33;2.03;;;11.20;99.90;;;;;;5042263;28;20437;-60
2021/05/21 10:18:13;;;;;;;2.17;2.03;;;11.20;99.90;;;;;;5047083;28;20180;-60
2021/05/21 10:20:39;;;;;;;3.30;2.30;;;11.10;99.90;;;;;;5024711;28;20476;-61
2021/05/21 10:23:06;;;;;;;3.70;2.90;;;11.10;99.90;;;;;;5044480;28;20434;-62
2021/05/21 10:25:35;;;;;;;2.80;2.33;;;11.10;99.90;;;;;;5024501;28;20266;-60
2021/05/21 10:28:06;;;;;;;2.83;2.63;;;11.10;99.90;;;;;;5035657;28;20419;-61
2021/05/21 10:30:34;;;;;;;2.67;2.07;;;11.10;99.90;;;;;;5040983;28;20641;-62
2021/05/21 10:33:32;;;;;;;3.87;2.60;;;11.10;99.90;;;;;;5042204;28;20502;-59
2021/05/21 10:36:22;;;;;;;4.90;2.80;;;11.10;99.90;;;;;;5034605;28;20500;-61
2021/05/21 10:39:17;;;;;;;2.23;1.73;;;11.10;99.90;;;;;;5042194;28;20445;-61
2021/05/21 10:42:17;;;;;;;3.13;1.80;;;11.10;99.90;;;;;;5017390;28;21102;-61
2021/05/21 10:44:43;;;;;;;1.77;1.67;;;11.10;99.90;;;;;;5037471;28;20934;-59
2021/05/21 10:47:17;;;;;;;2.73;1.70;;;11.20;99.90;;;;;;5038866;28;20445;-61
2021/05/21 10:49:52;;;;;;;2.27;2.03;;;11.30;99.90;;;;;;5047310;28;20198;-61
2021/05/21 10:52:20;;;;;;;3.00;1.60;;;11.30;99.90;;;;;;5041950;28;20460;-61
2021/05/21 10:54:50;;;;;;;1.90;1.70;;;11.30;99.90;;;;;;5030545;28;20793;-61
2021/05/21 10:57:26;;;;;;;2.73;1.93;;;11.30;99.90;;;;;;5032409;28;20429;-61
2021/05/21 10:59:52;;;;;;;3.40;2.10;;;11.40;99.90;;;;;;5028935;28;20533;-61
2021/05/21 11:02:22;;;;;;;3.43;2.37;;;11.40;99.90;;;;;;5045911;28;20441;-61
2021/05/21 11:04:49;;;;;;;6.80;2.80;;;11.40;99.90;;;;;;5038560;28;20423;-60
2021/05/21 11:07:31;;;;;;;2.67;2.03;;;11.40;99.90;;;;;;5048261;28;20425;-61
2021/05/21 11:09:57;;;;;;;1.50;1.40;;;11.30;99.90;;;;;;5039256;28;20990;-60
2021/05/21 11:12:23;;;;;;;1.80;1.70;;;11.30;99.90;;;;;;5046001;28;20460;-61
2021/05/21 11:14:51;;;;;;;2.20;1.73;;;11.30;99.90;;;;;;5048712;28;20902;-61
2021/05/21 11:17:26;;;;;;;1.97;1.87;;;11.30;99.90;;;;;;5033182;28;20192;-61
2021/05/21 11:19:58;;;;;;;2.20;2.00;;;11.30;99.90;;;;;;5047586;28;20460;-61
2021/05/21 11:22:31;;;;;;;4.10;2.70;;;11.30;99.90;;;;;;5048520;28;20953;-60
2021/05/21 11:25:22;;;;;;;1.97;1.37;;;11.30;99.90;;;;;;5048602;28;20867;-61
2021/05/21 11:27:47;;;;;;;1.50;1.40;;;11.20;99.90;;;;;;5045859;28;20441;-61
2021/05/21 11:30:15;;;;;;;2.73;1.43;;;11.20;99.90;;;;;;5047514;28;20460;-61
2021/05/21 11:32:41;;;;;;;12.23;1.83;;;11.10;99.90;;;;;;5046177;28;20182;-61
2021/05/21 11:35:12;;;;;;;1.93;1.53;;;11.10;99.90;;;;;;5015831;28;20449;-61
2021/05/21 11:37:40;;;;;;;2.60;1.67;;;11.10;99.90;;;;;;5027813;28;20437;-58
2021/05/21 11:40:07;;;;;;;2.00;1.90;;;11.00;99.90;;;;;;5048892;28;20996;-57
2021/05/21 11:42:35;;;;;;;7.00;2.20;;;11.00;99.90;;;;;;5048530;28;20457;-54
2021/05/21 11:45:03;;;;;;;2.90;1.90;;;11.00;99.90;;;;;;5048279;28;20429;-57
2021/05/21 11:47:35;;;;;;;1.90;1.70;;;11.00;99.90;;;;;;5023467;28;20838;-56
2021/05/21 11:50:01;;;;;;;6.30;2.47;;;11.00;99.90;;;;;;5035851;28;21061;-58
2021/05/21 11:52:26;;;;;;;4.00;1.70;;;11.00;99.90;;;;;;5039311;28;20439;-57
2021/05/21 11:54:54;;;;;;;6.83;2.10;;;10.90;99.90;;;;;;5041391;28;20183;-58
2021/05/21 11:57:22;;;;;;;2.30;1.77;;;10.90;99.90;;;;;;5040691;28;20603;-60
2021/05/21 11:59:48;;;;;;;4.57;1.87;;;10.90;99.90;;;;;;5032778;28;21016;-60
2021/05/21 12:02:15;;;;;;;1.90;1.70;;;10.90;99.90;;;;;;5038397;28;20449;-61
2021/05/21 12:04:43;;;;;;;3.53;1.80;;;10.90;99.90;;;;;;5022450;28;20973;-61
2021/05/21 12:07:25;;;;;;;2.50;2.30;;;10.90;99.90;;;;;;5015917;28;21006;-60
2021/05/21 12:09:52;;;;;;;5.20;2.60;;;11.00;99.90;;;;;;5041347;28;20453;-61
2021/05/21 12:12:23;;;;;;;1.97;1.53;;;11.00;99.90;;;;;;5023626;28;20515;-61
2021/05/21 12:14:49;;;;;;;9.60;1.90;;;11.00;99.90;;;;;;5045416;28;20845;-61
2021/05/21 12:17:14;;;;;;;2.40;1.60;;;11.00;99.90;;;;;;5043903;28;20510;-61
2021/05/21 12:19:41;;;;;;;2.63;2.23;;;11.00;99.90;;;;;;5040088;28;20221;-61
2021/05/21 12:22:07;;;;;;;4.53;2.00;;;11.00;99.90;;;;;;5041863;28;20183;-61
2021/05/21 12:24:41;;;;;;;2.07;1.93;;;11.00;99.90;;;;;;5040092;28;20445;-62
2021/05/21 12:27:07;;;;;;;6.23;2.00;;;10.90;99.90;;;;;;5043829;28;20179;-58
2021/05/21 12:29:33;;;;;;;2.93;2.40;;;10.90;99.90;;;;;;5039020;28;21236;-61
2021/05/21 12:32:00;;;;;;;5.57;3.00;;;10.90;99.90;;;;;;5039356;28;20516;-61
2021/05/21 12:34:28;;;;;;;7.87;3.97;;;10.90;99.90;;;;;;5040621;28;20217;-59
2021/05/21 12:37:05;;;;;;;5.60;2.80;;;10.90;99.90;;;;;;5040359;28;20531;-60
2021/05/21 12:39:40;;;;;;;3.00;2.00;;;10.90;99.90;;;;;;5039785;28;20464;-59
2021/05/21 12:42:06;;;;;;;2.43;2.20;;;10.90;99.90;;;;;;5040796;28;20848;-60
2021/05/21 12:44:33;;;;;;;2.30;2.10;;;10.90;99.90;;;;;;5039753;28;20430;-59
2021/05/21 12:47:02;;;;;;;4.03;2.33;;;10.90;99.90;;;;;;5036820;28;20850;-60
2021/05/21 12:49:37;;;;;;;3.00;2.13;;;10.90;99.90;;;;;;5048053;28;20533;-60
2021/05/21 12:52:06;;;;;;;3.90;2.00;;;10.90;99.90;;;;;;5045596;28;20524;-60
2021/05/21 12:54:34;;;;;;;3.70;2.27;;;10.90;99.90;;;;;;5042593;28;20981;-60
2021/05/21 12:57:04;;;;;;;2.90;1.70;;;10.90;99.90;;;;;;5045333;28;20442;-60